createdAt,value
2023-04-01T00:00:53.516Z,8.90
2023-04-01T00:03:21.642Z,8.80
2023-04-01T00:05:49.221Z,8.70
2023-04-01T00:08:16.625Z,8.80
2023-04-01T00:10:43.742Z,8.80
2023-04-01T00:13:10.880Z,8.90
2023-04-01T00:15:38.297Z,8.80
2023-04-01T00:18:06.210Z,8.70
2023-04-01T00:20:33.542Z,8.80
2023-04-01T00:23:00.688Z,9.10
2023-04-01T00:25:27.882Z,8.80
2023-04-01T00:27:54.993Z,8.80
2023-04-01T00:30:22.067Z,8.70
2023-04-01T00:32:52.323Z,8.70
2023-04-01T00:35:19.532Z,8.60
2023-04-01T00:37:46.617Z,8.80
2023-04-01T00:40:30.572Z,8.60
2023-04-01T00:42:57.919Z,8.60
2023-04-01T00:45:34.480Z,8.90
2023-04-01T00:48:03.388Z,8.50
2023-04-01T00:50:30.793Z,8.70
2023-04-01T00:52:58.366Z,8.40
2023-04-01T00:55:25.586Z,8.30
2023-04-01T00:57:52.738Z,8.40
2023-04-01T01:00:20.071Z,8.50
2023-04-01T01:02:47.307Z,8.40
2023-04-01T01:05:14.786Z,8.40
2023-04-01T01:07:54.014Z,8.30
2023-04-01T01:10:27.834Z,8.20
2023-04-01T01:13:15.447Z,8.10
2023-04-01T01:15:47.071Z,8.20
2023-04-01T01:18:17.970Z,8.10
2023-04-01T01:20:51.095Z,8.00
2023-04-01T01:23:30.676Z,8.10
2023-04-01T01:26:16.625Z,8.10
2023-04-01T01:29:05.839Z,8.20
2023-04-01T01:31:52.518Z,8.30
2023-04-01T01:34:28.981Z,8.50
2023-04-01T01:36:57.080Z,8.40
2023-04-01T01:39:28.725Z,8.40
2023-04-01T01:41:56.982Z,8.30
2023-04-01T01:44:24.086Z,8.30
2023-04-01T01:46:51.180Z,8.40
2023-04-01T01:49:18.249Z,8.60
2023-04-01T01:51:45.377Z,8.30
2023-04-01T01:54:13.132Z,8.30
2023-04-01T01:56:40.365Z,8.40
2023-04-01T01:59:25.602Z,8.30
2023-04-01T02:02:09.061Z,8.40
2023-04-01T02:04:37.098Z,8.50
2023-04-01T02:07:04.563Z,9.00
2023-04-01T02:09:31.796Z,8.70
2023-04-01T02:12:00.346Z,9.40
2023-04-01T02:14:28.027Z,8.80
2023-04-01T02:16:56.799Z,8.80
2023-04-01T02:19:26.682Z,8.80
2023-04-01T02:21:54.917Z,8.80
2023-04-01T02:24:23.355Z,9.10
2023-04-01T02:26:53.408Z,8.80
2023-04-01T02:29:20.986Z,8.60
2023-04-01T02:31:48.222Z,8.60
2023-04-01T02:34:15.389Z,8.70
2023-04-01T02:36:42.739Z,8.60
2023-04-01T02:39:09.822Z,8.80
2023-04-01T02:41:43.871Z,8.80
2023-04-01T02:44:11.543Z,8.70
2023-04-01T02:46:38.918Z,8.70
2023-04-01T02:49:06.380Z,8.80
2023-04-01T02:51:33.936Z,8.80
2023-04-01T02:54:01.211Z,8.60
2023-04-01T02:56:28.312Z,8.60
2023-04-01T02:58:55.609Z,8.50
2023-04-01T03:01:22.865Z,8.70
2023-04-01T03:03:50.022Z,8.60
2023-04-01T03:06:17.299Z,8.40
2023-04-01T03:08:44.552Z,8.30
2023-04-01T03:11:11.948Z,8.60
2023-04-01T03:13:39.161Z,8.60
2023-04-01T03:16:07.363Z,8.40
2023-04-01T03:18:34.486Z,8.60
2023-04-01T03:21:15.391Z,8.60
2023-04-01T03:23:42.567Z,8.40
2023-04-01T03:26:09.714Z,8.30
2023-04-01T03:28:37.354Z,8.20
2023-04-01T03:31:04.521Z,8.10
2023-04-01T03:33:31.966Z,8.30
2023-04-01T03:35:59.227Z,8.20
2023-04-01T03:38:26.422Z,8.30
2023-04-01T03:40:53.534Z,8.20
2023-04-01T03:43:21.413Z,8.30
2023-04-01T03:45:49.490Z,8.20
2023-04-01T03:48:16.710Z,8.20
2023-04-01T03:50:43.850Z,8.30
2023-04-01T03:53:11.066Z,8.40
2023-04-01T03:55:38.398Z,8.30
2023-04-01T03:58:06.124Z,8.40
2023-04-01T04:00:33.279Z,8.70
2023-04-01T04:03:00.484Z,8.30
2023-04-01T04:05:27.678Z,8.50
2023-04-01T04:07:54.788Z,8.40
2023-04-01T04:10:23.814Z,8.30
2023-04-01T04:12:50.949Z,8.30
2023-04-01T04:15:18.108Z,8.20
2023-04-01T04:17:46.031Z,8.30
2023-04-01T04:20:13.648Z,8.20
2023-04-01T04:22:40.740Z,8.10
2023-04-01T04:25:08.155Z,8.10
2023-04-01T04:27:35.303Z,8.10
2023-04-01T04:30:02.421Z,8.00
2023-04-01T04:32:30.098Z,8.60
2023-04-01T04:34:58.248Z,8.10
2023-04-01T04:37:26.727Z,8.10
2023-04-01T04:39:53.863Z,8.40
2023-04-01T04:42:20.984Z,8.20
2023-04-01T04:44:48.096Z,8.30
2023-04-01T04:47:15.414Z,8.60
2023-04-01T04:49:42.581Z,8.10
2023-04-01T04:52:09.691Z,8.40
2023-04-01T04:54:36.814Z,8.20
2023-04-01T04:57:04.014Z,8.10
2023-04-01T04:59:31.327Z,8.10
2023-04-01T05:01:58.423Z,8.30
2023-04-01T05:04:25.654Z,8.20
2023-04-01T05:06:52.889Z,8.60
2023-04-01T05:09:20.369Z,8.60
2023-04-01T05:11:47.475Z,8.30
2023-04-01T05:14:15.592Z,8.50
2023-04-01T05:16:42.748Z,8.60
2023-04-01T05:19:09.862Z,8.30
2023-04-01T05:21:36.967Z,8.50
2023-04-01T05:24:04.186Z,8.30
2023-04-01T05:26:31.552Z,8.40
2023-04-01T05:28:58.636Z,8.30
2023-04-01T05:31:26.638Z,8.40
2023-04-01T05:33:55.032Z,8.40
2023-04-01T05:36:22.158Z,8.30
2023-04-01T05:38:49.830Z,8.40
2023-04-01T05:41:16.969Z,8.50
2023-04-01T05:43:44.142Z,8.50
2023-04-01T05:46:11.304Z,8.60
2023-04-01T05:48:38.554Z,8.30
2023-04-01T05:51:05.655Z,8.70
2023-04-01T05:53:32.854Z,8.60
2023-04-01T05:56:03.727Z,8.60
2023-04-01T05:58:31.065Z,8.70
2023-04-01T06:01:10.379Z,8.70
2023-04-01T06:03:41.323Z,8.60
2023-04-01T06:06:16.466Z,8.70
2023-04-01T06:08:43.781Z,8.70
2023-04-01T06:11:23.774Z,8.60
2023-04-01T06:13:50.843Z,8.70
2023-04-01T06:16:22.501Z,8.80
2023-04-01T06:19:01.001Z,8.80
2023-04-01T06:21:34.893Z,9.20
2023-04-01T06:24:15.274Z,8.70
2023-04-01T06:26:48.470Z,8.80
2023-04-01T06:29:34.278Z,9.20
2023-04-01T06:32:01.462Z,8.80
2023-04-01T06:34:28.608Z,8.60
2023-04-01T06:36:59.450Z,8.70
2023-04-01T06:39:41.777Z,9.30
2023-04-01T06:42:14.854Z,8.70
2023-04-01T06:44:56.146Z,8.60
2023-04-01T06:47:23.246Z,8.70
2023-04-01T06:50:04.024Z,8.70
2023-04-01T06:52:57.444Z,9.10
2023-04-01T06:55:24.588Z,8.70
2023-04-01T06:57:56.313Z,8.90
2023-04-01T07:00:34.109Z,9.00
2023-04-01T07:03:04.866Z,8.90
2023-04-01T07:05:33.733Z,8.70
2023-04-01T07:08:03.000Z,8.90
2023-04-01T07:10:39.211Z,9.00
2023-04-01T07:13:07.921Z,8.80
2023-04-01T07:15:37.627Z,9.00
2023-04-01T07:18:08.142Z,8.70
2023-04-01T07:20:36.235Z,8.80
2023-04-01T07:23:03.928Z,9.00
2023-04-01T07:25:47.150Z,8.70
2023-04-01T07:28:15.661Z,8.80
2023-04-01T07:30:49.443Z,8.90
2023-04-01T07:33:18.096Z,8.80
2023-04-01T07:35:53.994Z,9.10
2023-04-01T07:38:33.364Z,9.00
2023-04-01T07:41:03.235Z,9.00
2023-04-01T07:43:48.657Z,9.20
2023-04-01T07:46:18.834Z,9.60
2023-04-01T07:48:49.448Z,9.10
2023-04-01T07:51:21.674Z,9.10
2023-04-01T07:53:54.417Z,9.20
2023-04-01T07:56:24.517Z,9.00
2023-04-01T07:58:53.894Z,9.10
2023-04-01T08:01:35.388Z,9.20
2023-04-01T08:04:09.543Z,9.00
2023-04-01T08:06:36.815Z,9.10
2023-04-01T08:09:09.440Z,9.20
2023-04-01T08:11:43.167Z,9.10
2023-04-01T08:14:26.424Z,9.30
2023-04-01T08:16:58.126Z,9.10
2023-04-01T08:19:50.136Z,9.30
2023-04-01T08:22:20.007Z,9.20
2023-04-01T08:24:48.537Z,9.30
2023-04-01T08:27:15.941Z,9.20
2023-04-01T08:29:45.492Z,9.00
2023-04-01T08:32:23.404Z,9.30
2023-04-01T08:34:52.199Z,9.20
2023-04-01T08:37:20.635Z,9.20
2023-04-01T08:39:55.821Z,9.40
2023-04-01T08:42:41.371Z,9.10
2023-04-01T08:45:20.759Z,9.10
2023-04-01T08:48:00.529Z,9.10
2023-04-01T08:50:42.985Z,9.30
2023-04-01T08:53:33.454Z,9.10
2023-04-01T08:56:18.759Z,8.90
2023-04-01T08:58:55.197Z,9.10
2023-04-01T09:01:42.579Z,8.90
2023-04-01T09:04:21.183Z,9.00
2023-04-01T09:06:51.366Z,9.10
2023-04-01T09:09:28.392Z,8.90
2023-04-01T09:11:55.537Z,9.20
2023-04-01T09:14:25.115Z,9.00
2023-04-01T09:16:52.166Z,8.90
2023-04-01T09:19:22.421Z,9.00
2023-04-01T09:22:08.366Z,9.40
2023-04-01T09:24:35.491Z,9.10
2023-04-01T09:27:03.645Z,9.00
2023-04-01T09:29:49.510Z,9.20
2023-04-01T09:32:16.589Z,9.10
2023-04-01T09:35:02.717Z,9.10
2023-04-01T09:37:32.865Z,9.00
2023-04-01T09:40:18.608Z,9.10
2023-04-01T09:42:57.510Z,9.20
2023-04-01T09:45:34.599Z,9.20
2023-04-01T09:48:22.090Z,9.10
2023-04-01T09:50:49.303Z,9.10
2023-04-01T09:53:22.444Z,9.10
2023-04-01T09:56:08.329Z,9.10
2023-04-01T09:58:54.301Z,9.20
2023-04-01T10:01:28.866Z,9.10
2023-04-01T10:04:05.822Z,9.20
2023-04-01T10:06:46.738Z,9.20
2023-04-01T10:09:32.770Z,9.20
2023-04-01T10:12:03.771Z,9.40
2023-04-01T10:14:37.449Z,9.40
2023-04-01T10:17:23.409Z,9.30
2023-04-01T10:20:00.847Z,9.30
2023-04-01T10:22:44.287Z,9.50
2023-04-01T10:25:17.578Z,9.40
2023-04-01T10:27:56.226Z,9.50
2023-04-01T10:30:35.590Z,9.30
2023-04-01T10:33:21.539Z,9.50
2023-04-01T10:36:07.043Z,9.50
2023-04-01T10:38:37.135Z,9.60
2023-04-01T10:41:07.296Z,9.70
2023-04-01T10:43:53.187Z,9.90
2023-04-01T10:46:33.712Z,9.50
2023-04-01T10:49:24.174Z,9.50
2023-04-01T10:51:54.267Z,9.50
2023-04-01T10:54:22.624Z,9.50
2023-04-01T10:56:51.384Z,9.50
2023-04-01T10:59:18.485Z,9.50
2023-04-01T11:02:10.218Z,9.40
2023-04-01T11:04:57.625Z,9.50
2023-04-01T11:07:33.846Z,9.30
2023-04-01T11:10:00.983Z,9.40
2023-04-01T11:12:46.400Z,10.10
2023-04-01T11:15:32.516Z,9.60
2023-04-01T11:18:15.243Z,9.40
2023-04-01T11:20:45.969Z,9.40
2023-04-01T11:23:19.190Z,9.30
2023-04-01T11:26:04.822Z,9.40
2023-04-01T11:28:41.685Z,9.40
2023-04-01T11:31:18.742Z,9.50
2023-04-01T11:33:50.848Z,9.30
2023-04-01T11:36:24.099Z,9.60
2023-04-01T11:39:06.432Z,9.40
2023-04-01T11:41:50.931Z,9.70
2023-04-01T11:44:22.380Z,9.80
2023-04-01T11:46:55.477Z,9.50
2023-04-01T11:49:29.869Z,9.50
2023-04-01T11:52:02.556Z,9.50
2023-04-01T11:54:34.144Z,9.70
2023-04-01T11:57:05.513Z,9.80
2023-04-01T11:59:51.373Z,9.70
2023-04-01T12:02:25.478Z,9.70
2023-04-01T12:04:57.857Z,9.70
2023-04-01T12:07:31.232Z,10.00
2023-04-01T12:10:07.454Z,9.70
2023-04-01T12:12:50.760Z,9.70
2023-04-01T12:15:34.681Z,9.70
2023-04-01T12:18:20.928Z,9.80
2023-04-01T12:20:52.456Z,9.80
2023-04-01T12:23:33.507Z,9.80
2023-04-01T12:26:11.315Z,9.90
2023-04-01T12:28:42.737Z,10.00
2023-04-01T12:31:48.578Z,9.90
2023-04-01T12:34:33.904Z,9.90
2023-04-01T12:37:06.847Z,10.10
2023-04-01T12:39:40.306Z,10.00
2023-04-01T12:42:26.220Z,10.00
2023-04-01T12:45:14.033Z,10.10
2023-04-01T12:47:46.468Z,10.00
2023-04-01T12:50:25.843Z,10.20
2023-04-01T12:53:03.990Z,10.20
2023-04-01T12:55:34.351Z,10.20
2023-04-01T12:58:18.213Z,10.30
2023-04-01T13:00:47.341Z,10.30
2023-04-01T13:03:18.236Z,10.40
2023-04-01T13:05:56.822Z,10.30
2023-04-01T13:08:37.848Z,10.30
2023-04-01T13:11:09.960Z,10.20
2023-04-01T13:13:40.210Z,10.30
2023-04-01T13:16:16.154Z,10.60
2023-04-01T13:18:49.974Z,10.50
2023-04-01T13:21:17.067Z,10.70
2023-04-01T13:24:03.683Z,10.30
2023-04-01T13:26:35.400Z,10.40
2023-04-01T13:29:12.353Z,10.60
2023-04-01T13:31:42.979Z,10.50
2023-04-01T13:41:04.104Z,10.70
2023-04-01T13:44:03.023Z,10.60
2023-04-01T13:47:04.037Z,10.70
2023-04-01T13:50:03.453Z,10.70
2023-04-01T13:53:02.937Z,10.70
2023-04-01T13:55:30.097Z,10.70
2023-04-01T13:58:06.144Z,10.90
2023-04-01T14:00:52.197Z,10.80
2023-04-01T14:03:38.101Z,10.90
2023-04-01T14:06:11.658Z,11.10
2023-04-01T14:08:45.426Z,10.90
2023-04-01T14:11:31.572Z,10.90
2023-04-01T14:14:01.754Z,10.80
2023-04-01T14:16:47.815Z,10.90
2023-04-01T14:19:33.883Z,11.00
2023-04-01T14:22:06.270Z,11.10
2023-04-01T14:24:33.365Z,11.10
2023-04-01T14:27:03.454Z,11.10
2023-04-01T14:29:46.263Z,11.80
2023-04-01T14:32:22.549Z,11.50
2023-04-01T14:35:08.377Z,11.70
2023-04-01T14:37:54.196Z,12.50
2023-04-01T14:40:48.616Z,12.30
2023-04-01T14:43:19.529Z,12.50
2023-04-01T14:46:05.111Z,12.90
2023-04-01T14:48:36.199Z,12.90
2023-04-01T14:51:04.866Z,12.80
2023-04-01T14:53:32.935Z,12.30
2023-04-01T14:56:00.928Z,12.10
2023-04-01T14:58:40.756Z,11.80
2023-04-01T15:01:07.913Z,12.20
2023-04-01T15:03:40.157Z,12.40
2023-04-01T15:06:26.008Z,12.60
2023-04-01T15:08:53.077Z,12.20
2023-04-01T15:11:27.200Z,11.80
2023-04-01T15:14:03.340Z,12.10
2023-04-01T15:16:32.861Z,12.10
2023-04-01T15:19:13.517Z,12.10
2023-04-01T15:21:59.499Z,11.50
2023-04-01T15:24:26.586Z,12.00
2023-04-01T15:27:01.269Z,11.50
2023-04-01T15:29:40.808Z,11.20
2023-04-01T15:32:20.836Z,11.10
2023-04-01T15:34:56.898Z,11.00
2023-04-01T15:37:29.321Z,11.30
2023-04-01T15:39:59.409Z,11.10
2023-04-01T15:42:33.239Z,11.00
2023-04-01T15:45:07.134Z,11.10
2023-04-01T15:47:44.398Z,11.20
2023-04-01T15:50:35.960Z,11.10
2023-04-01T15:53:06.209Z,11.30
2023-04-01T15:55:52.109Z,11.20
2023-04-01T15:58:34.439Z,11.10
2023-04-01T16:01:16.839Z,10.90
2023-04-01T16:03:47.990Z,11.30
2023-04-01T16:06:19.453Z,11.20
2023-04-01T16:08:46.598Z,10.70
2023-04-01T16:11:16.329Z,11.10
2023-04-01T16:14:02.103Z,11.00
2023-04-01T16:16:37.479Z,10.70
2023-04-01T16:19:23.453Z,10.80
2023-04-01T16:22:08.769Z,10.90
2023-04-01T16:24:36.017Z,10.40
2023-04-01T16:27:21.859Z,10.40
2023-04-01T16:29:54.137Z,10.80
2023-04-01T16:32:42.594Z,10.80
2023-04-01T16:35:28.018Z,10.60
2023-04-01T16:37:57.182Z,10.60
2023-04-01T16:40:27.405Z,10.40
2023-04-01T16:42:59.115Z,10.60
2023-04-01T16:45:29.292Z,10.60
2023-04-01T16:47:56.467Z,10.70
2023-04-01T16:50:24.465Z,11.20
2023-04-01T16:52:54.699Z,11.00
2023-04-01T16:55:22.245Z,11.40
2023-04-01T16:57:49.426Z,11.20
2023-04-01T17:00:25.287Z,11.00
2023-04-01T17:03:07.754Z,11.20
2023-04-01T17:05:37.709Z,10.90
2023-04-01T17:08:23.706Z,11.40
2023-04-01T17:10:54.699Z,10.80
2023-04-01T17:13:28.643Z,10.90
2023-04-01T17:16:04.753Z,11.00
2023-04-01T17:18:38.806Z,11.00
2023-04-01T17:21:08.573Z,11.00
2023-04-01T17:23:39.788Z,11.30
2023-04-01T17:26:09.935Z,11.20
2023-04-01T17:28:43.129Z,11.10
2023-04-01T17:31:29.131Z,11.30
2023-04-01T17:33:56.267Z,11.20
2023-04-01T17:36:27.858Z,11.20
2023-04-01T17:39:13.676Z,11.20
2023-04-01T17:41:48.343Z,11.30
2023-04-01T17:44:17.905Z,11.40
2023-04-01T17:47:03.658Z,11.30
2023-04-01T17:49:36.872Z,11.20
2023-04-01T17:52:11.870Z,11.10
2023-04-01T17:54:44.072Z,11.10
2023-04-01T17:57:11.241Z,11.00
2023-04-01T18:00:11.302Z,11.50
2023-04-01T18:03:03.523Z,11.00
2023-04-01T18:06:00.979Z,11.00
2023-04-01T18:08:31.341Z,11.20
2023-04-01T18:11:36.179Z,10.90
2023-04-01T18:15:21.665Z,11.40
2023-04-01T18:18:14.844Z,11.50
2023-04-01T18:20:57.457Z,11.20
2023-04-01T18:23:59.124Z,10.80
2023-04-01T18:26:30.471Z,10.50
2023-04-01T18:28:59.702Z,10.40
2023-04-01T18:31:37.206Z,10.40
2023-04-01T18:34:27.565Z,10.70
2023-04-01T18:36:56.699Z,10.40
2023-04-01T18:39:29.579Z,10.40
2023-04-01T18:42:15.616Z,10.50
2023-04-01T18:45:03.209Z,10.50
2023-04-01T18:47:33.456Z,10.30
2023-04-01T18:50:00.910Z,10.20
2023-04-01T18:52:28.654Z,10.30
2023-04-01T18:55:01.447Z,10.30
2023-04-01T18:57:39.494Z,10.60
2023-04-01T19:00:10.179Z,10.20
2023-04-01T19:02:40.331Z,10.40
2023-04-01T19:05:20.719Z,10.10
2023-04-01T19:07:47.899Z,10.10
2023-04-01T19:10:17.353Z,10.40
2023-04-01T19:12:47.606Z,10.10
2023-04-01T19:15:20.945Z,10.00
2023-04-01T19:17:54.157Z,10.20
2023-04-01T19:20:21.223Z,10.00
2023-04-01T19:22:58.766Z,9.90
2023-04-01T19:25:27.719Z,10.10
2023-04-01T19:27:56.759Z,10.00
2023-04-01T19:30:42.699Z,9.90
2023-04-01T19:33:39.176Z,9.90
2023-04-01T19:36:09.160Z,9.70
2023-04-01T19:38:40.587Z,9.80
2023-04-01T19:41:16.864Z,9.70
2023-04-01T19:43:43.932Z,9.70
2023-04-01T19:46:30.628Z,9.80
2023-04-01T19:49:06.832Z,9.80
2023-04-01T19:51:46.423Z,9.60
2023-04-01T19:54:31.552Z,9.70
2023-04-01T19:57:05.015Z,9.50
2023-04-01T19:59:32.155Z,9.50
2023-04-01T20:02:00.785Z,9.70
2023-04-01T20:04:30.411Z,9.50
2023-04-01T20:07:16.732Z,9.60
2023-04-01T20:09:46.636Z,9.60
2023-04-01T20:12:18.309Z,9.60
2023-04-01T20:14:55.724Z,9.50
2023-04-01T20:17:22.812Z,9.40
2023-04-01T20:20:02.817Z,9.40
2023-04-01T20:22:45.690Z,9.50
2023-04-01T20:25:14.732Z,9.60
2023-04-01T20:27:53.076Z,9.50
2023-04-01T20:30:27.566Z,9.40
2023-04-01T20:33:01.188Z,9.60
2023-04-01T20:35:43.579Z,9.50
2023-04-01T20:38:16.524Z,9.40
2023-04-01T20:40:48.496Z,9.50
2023-04-01T20:43:29.256Z,9.70
2023-04-01T20:45:56.427Z,9.90
2023-04-01T20:48:37.997Z,10.60
2023-04-01T20:51:11.279Z,10.20
2023-04-01T20:53:39.625Z,10.30
2023-04-01T20:56:12.931Z,11.10
2023-04-01T20:58:44.890Z,11.10
2023-04-01T21:01:24.220Z,10.90
2023-04-01T21:04:11.140Z,10.40
2023-04-01T21:06:41.883Z,10.30
2023-04-01T21:09:12.476Z,10.20
2023-04-01T21:11:46.536Z,10.20
2023-04-01T21:14:28.597Z,10.40
2023-04-01T21:17:10.148Z,10.30
2023-04-01T21:19:41.845Z,11.00
2023-04-01T21:22:21.600Z,10.60
2023-04-01T21:25:00.292Z,10.50
2023-04-01T21:27:46.198Z,11.20
2023-04-01T21:30:22.704Z,11.10
2023-04-01T21:32:59.700Z,11.20
2023-04-01T21:35:42.170Z,11.00
2023-04-01T21:38:17.502Z,11.40
2023-04-01T21:41:03.028Z,11.50
2023-04-01T21:43:34.395Z,11.50
2023-04-01T21:46:16.926Z,11.30
2023-04-01T21:48:44.390Z,11.30
2023-04-01T21:51:22.555Z,10.90
2023-04-01T21:53:58.792Z,10.70
2023-04-01T21:56:26.199Z,10.60
2023-04-01T21:58:56.283Z,10.40
2023-04-01T22:01:27.749Z,10.60
2023-04-01T22:04:04.122Z,10.50
2023-04-01T22:06:33.980Z,9.70
2023-04-01T22:09:01.405Z,9.60
2023-04-01T22:11:45.998Z,9.40
2023-04-01T22:14:27.204Z,9.60
2023-04-01T22:16:55.399Z,9.30
2023-04-01T22:19:42.468Z,9.20
2023-04-01T22:22:32.850Z,9.20
2023-04-01T22:25:10.297Z,9.00
2023-04-01T22:27:47.613Z,9.10
2023-04-01T22:30:14.671Z,9.00
2023-04-01T22:32:43.857Z,9.30
2023-04-01T22:35:18.322Z,9.10
2023-04-01T22:37:48.438Z,9.10
2023-04-01T22:40:34.636Z,9.40
2023-04-01T22:43:03.227Z,9.40
2023-04-01T22:45:35.278Z,9.40
2023-04-01T22:48:06.772Z,9.40
2023-04-01T22:50:48.939Z,9.30
2023-04-01T22:53:19.157Z,9.20
2023-04-01T22:55:53.594Z,9.00
2023-04-01T22:58:39.945Z,8.80
2023-04-01T23:01:08.194Z,9.00
2023-04-01T23:03:35.871Z,9.30
2023-04-01T23:06:03.938Z,9.00
2023-04-01T23:08:43.313Z,9.20
2023-04-01T23:11:11.557Z,9.20
2023-04-01T23:13:39.375Z,9.60
2023-04-01T23:16:07.306Z,9.30
2023-04-01T23:18:38.261Z,9.40
2023-04-01T23:21:14.658Z,9.40
2023-04-01T23:23:56.216Z,9.50
2023-04-01T23:26:23.298Z,9.60
2023-04-01T23:28:51.057Z,9.80
2023-04-01T23:31:33.646Z,9.40
2023-04-01T23:34:01.848Z,9.50
2023-04-01T23:36:29.418Z,8.90
2023-04-01T23:38:56.535Z,8.90
2023-04-01T23:41:29.054Z,8.70
2023-04-01T23:44:06.749Z,9.10
2023-04-01T23:46:34.591Z,9.70
2023-04-01T23:49:02.059Z,9.80
2023-04-01T23:51:30.507Z,9.60
2023-04-01T23:53:59.962Z,9.20
2023-04-01T23:56:47.381Z,9.60
2023-04-01T23:59:19.200Z,9.80
